sensor_id;sensor_type;location;lat;lon;timestamp;pressure;altitude;pressure_sealevel;temperature
76476;BMP280;65308;50.078;14.854;2023-07-13T00:01:27;98788.28;;;21.96
76476;BMP280;65308;50.078;14.854;2023-07-13T00:03:54;98795.31;;;21.92
76476;BMP280;65308;50.078;14.854;2023-07-13T00:06:21;98801.44;;;21.85
76476;BMP280;65308;50.078;14.854;2023-07-13T00:08:47;98792.00;;;21.86
76476;BMP280;65308;50.078;14.854;2023-07-13T00:11:15;98796.66;;;21.78
76476;BMP280;65308;50.078;14.854;2023-07-13T00:13:43;98796.13;;;21.79
76476;BMP280;65308;50.078;14.854;2023-07-13T00:16:12;98798.19;;;21.86
76476;BMP280;65308;50.078;14.854;2023-07-13T00:18:39;98806.97;;;21.92
76476;BMP280;65308;50.078;14.854;2023-07-13T00:21:06;98799.19;;;21.96
76476;BMP280;65308;50.078;14.854;2023-07-13T00:23:33;98800.84;;;21.99
76476;BMP280;65308;50.078;14.854;2023-07-13T00:26:00;98803.97;;;22.03
76476;BMP280;65308;50.078;14.854;2023-07-13T00:28:27;98800.72;;;22.05
76476;BMP280;65308;50.078;14.854;2023-07-13T00:30:54;98801.66;;;22.08
76476;BMP280;65308;50.078;14.854;2023-07-13T00:33:22;98801.66;;;22.08
76476;BMP280;65308;50.078;14.854;2023-07-13T00:35:49;98792.41;;;22.11
76476;BMP280;65308;50.078;14.854;2023-07-13T00:38:16;98794.06;;;22.14
76476;BMP280;65308;50.078;14.854;2023-07-13T00:40:43;98791.53;;;22.16
76476;BMP280;65308;50.078;14.854;2023-07-13T00:43:12;98781.91;;;22.15
76476;BMP280;65308;50.078;14.854;2023-07-13T00:46:10;98777.91;;;22.16
76476;BMP280;65308;50.078;14.854;2023-07-13T00:48:38;98775.16;;;22.16
76476;BMP280;65308;50.078;14.854;2023-07-13T00:51:06;98773.38;;;22.18
76476;BMP280;65308;50.078;14.854;2023-07-13T00:53:33;98763.97;;;22.19
76476;BMP280;65308;50.078;14.854;2023-07-13T00:56:00;98753.78;;;22.20
76476;BMP280;65308;50.078;14.854;2023-07-13T00:58:28;98751.03;;;22.20
76476;BMP280;65308;50.078;14.854;2023-07-13T01:00:55;98756.72;;;22.22
76476;BMP280;65308;50.078;14.854;2023-07-13T01:03:22;98755.25;;;22.21
76476;BMP280;65308;50.078;14.854;2023-07-13T01:05:50;98758.91;;;22.23
76476;BMP280;65308;50.078;14.854;2023-07-13T01:08:19;98748.31;;;22.20
76476;BMP280;65308;50.078;14.854;2023-07-13T01:10:55;98755.56;;;22.17
76476;BMP280;65308;50.078;14.854;2023-07-13T01:13:23;98754.31;;;22.18
76476;BMP280;65308;50.078;14.854;2023-07-13T01:15:51;98749.81;;;22.21
76476;BMP280;65308;50.078;14.854;2023-07-13T01:18:20;98740.00;;;22.25
76476;BMP280;65308;50.078;14.854;2023-07-13T01:20:52;98736.75;;;22.27
76476;BMP280;65308;50.078;14.854;2023-07-13T01:23:19;98736.91;;;22.21
76476;BMP280;65308;50.078;14.854;2023-07-13T01:25:46;98738.50;;;22.17
76476;BMP280;65308;50.078;14.854;2023-07-13T01:28:13;98735.38;;;22.13
76476;BMP280;65308;50.078;14.854;2023-07-13T01:30:43;98732.13;;;22.14
76476;BMP280;65308;50.078;14.854;2023-07-13T01:33:12;98722.69;;;22.15
76476;BMP280;65308;50.078;14.854;2023-07-13T01:35:38;98713.25;;;22.16
76476;BMP280;65308;50.078;14.854;2023-07-13T01:38:07;98720.88;;;22.18
76476;BMP280;65308;50.078;14.854;2023-07-13T01:40:35;98708.72;;;22.19
76476;BMP280;65308;50.078;14.854;2023-07-13T01:43:02;98716.34;;;22.20
76476;BMP280;65308;50.078;14.854;2023-07-13T01:45:29;98725.13;;;22.26
76476;BMP280;65308;50.078;14.854;2023-07-13T01:47:56;98725.13;;;22.26
76476;BMP280;65308;50.078;14.854;2023-07-13T01:50:23;98711.91;;;22.31
76476;BMP280;65308;50.078;14.854;2023-07-13T01:52:49;98723.38;;;22.37
76476;BMP280;65308;50.078;14.854;2023-07-13T01:55:17;98719.03;;;22.41
76476;BMP280;65308;50.078;14.854;2023-07-13T01:57:44;98721.63;;;22.47
76476;BMP280;65308;50.078;14.854;2023-07-13T02:00:13;98734.38;;;22.52
76476;BMP280;65308;50.078;14.854;2023-07-13T02:02:39;98737.47;;;22.56
76476;BMP280;65308;50.078;14.854;2023-07-13T02:05:07;98737.16;;;22.60
76476;BMP280;65308;50.078;14.854;2023-07-13T02:07:34;98747.88;;;22.65
76476;BMP280;65308;50.078;14.854;2023-07-13T02:10:00;98746.81;;;22.68
76476;BMP280;65308;50.078;14.854;2023-07-13T02:12:28;98738.28;;;22.72
76476;BMP280;65308;50.078;14.854;2023-07-13T02:14:55;98734.69;;;22.77
76476;BMP280;65308;50.078;14.854;2023-07-13T02:17:21;98727.75;;;22.76
76476;BMP280;65308;50.078;14.854;2023-07-13T02:19:48;98727.97;;;22.78
76476;BMP280;65308;50.078;14.854;2023-07-13T02:22:15;98734.34;;;22.80
76476;BMP280;65308;50.078;14.854;2023-07-13T02:24:41;98724.34;;;22.83
76476;BMP280;65308;50.078;14.854;2023-07-13T02:27:08;98728.34;;;22.82
76476;BMP280;65308;50.078;14.854;2023-07-13T02:29:36;98722.69;;;22.80
76476;BMP280;65308;50.078;14.854;2023-07-13T02:32:03;98733.63;;;22.80
76476;BMP280;65308;50.078;14.854;2023-07-13T02:34:30;98739.97;;;22.82
76476;BMP280;65308;50.078;14.854;2023-07-13T02:36:56;98736.69;;;22.76
76476;BMP280;65308;50.078;14.854;2023-07-13T02:39:23;98738.13;;;22.77
76476;BMP280;65308;50.078;14.854;2023-07-13T02:41:49;98744.72;;;22.82
76476;BMP280;65308;50.078;14.854;2023-07-13T02:44:16;98753.78;;;22.77
76476;BMP280;65308;50.078;14.854;2023-07-13T02:46:44;98748.72;;;22.81
76476;BMP280;65308;50.078;14.854;2023-07-13T02:49:11;98754.75;;;22.87
76476;BMP280;65308;50.078;14.854;2023-07-13T02:51:37;98752.22;;;22.89
76476;BMP280;65308;50.078;14.854;2023-07-13T02:54:04;98756.00;;;22.86
76476;BMP280;65308;50.078;14.854;2023-07-13T02:56:32;98746.75;;;22.89
76476;BMP280;65308;50.078;14.854;2023-07-13T02:58:58;98746.22;;;22.98
76476;BMP280;65308;50.078;14.854;2023-07-13T03:01:25;98755.31;;;23.01
76476;BMP280;65308;50.078;14.854;2023-07-13T03:03:53;98759.16;;;22.98
76476;BMP280;65308;50.078;14.854;2023-07-13T03:06:21;98758.25;;;22.95
76476;BMP280;65308;50.078;14.854;2023-07-13T03:08:48;98752.97;;;22.97
76476;BMP280;65308;50.078;14.854;2023-07-13T03:11:18;98750.97;;;22.98
76476;BMP280;65308;50.078;14.854;2023-07-13T03:13:45;98755.53;;;23.03
76476;BMP280;65308;50.078;14.854;2023-07-13T03:16:12;98758.28;;;23.10
76476;BMP280;65308;50.078;14.854;2023-07-13T03:18:41;98765.59;;;23.16
76476;BMP280;65308;50.078;14.854;2023-07-13T03:21:09;98762.72;;;23.21
76476;BMP280;65308;50.078;14.854;2023-07-13T03:23:36;98771.63;;;23.29
76476;BMP280;65308;50.078;14.854;2023-07-13T03:26:04;98775.31;;;23.32
76476;BMP280;65308;50.078;14.854;2023-07-13T03:28:32;98782.03;;;23.31
76476;BMP280;65308;50.078;14.854;2023-07-13T03:31:00;98788.19;;;23.24
76476;BMP280;65308;50.078;14.854;2023-07-13T03:33:27;98790.19;;;23.23
76476;BMP280;65308;50.078;14.854;2023-07-13T03:35:53;98779.97;;;23.16
76476;BMP280;65308;50.078;14.854;2023-07-13T03:38:21;98783.25;;;23.15
76476;BMP280;65308;50.078;14.854;2023-07-13T03:40:48;98782.13;;;23.10
76476;BMP280;65308;50.078;14.854;2023-07-13T03:43:15;98794.66;;;23.05
76476;BMP280;65308;50.078;14.854;2023-07-13T03:45:41;98803.94;;;23.02
76476;BMP280;65308;50.078;14.854;2023-07-13T03:48:10;98802.63;;;22.96
76476;BMP280;65308;50.078;14.854;2023-07-13T03:50:37;98818.66;;;22.99
76476;BMP280;65308;50.078;14.854;2023-07-13T03:53:04;98825.97;;;23.04
76476;BMP280;65308;50.078;14.854;2023-07-13T03:55:32;98833.44;;;23.11
76476;BMP280;65308;50.078;14.854;2023-07-13T03:57:59;98837.84;;;23.15
76476;BMP280;65308;50.078;14.854;2023-07-13T04:00:26;98848.22;;;23.16
76476;BMP280;65308;50.078;14.854;2023-07-13T04:02:53;98843.66;;;23.11
76476;BMP280;65308;50.078;14.854;2023-07-13T04:05:19;98853.66;;;23.08
76476;BMP280;65308;50.078;14.854;2023-07-13T04:07:46;98850.06;;;22.85
76476;BMP280;65308;50.078;14.854;2023-07-13T04:10:13;98853.72;;;22.59
76476;BMP280;65308;50.078;14.854;2023-07-13T04:12:40;98857.03;;;22.23
76476;BMP280;65308;50.078;14.854;2023-07-13T04:15:08;98852.25;;;22.16
76476;BMP280;65308;50.078;14.854;2023-07-13T04:17:34;98852.91;;;22.09
76476;BMP280;65308;50.078;14.854;2023-07-13T04:20:01;98855.09;;;22.11
76476;BMP280;65308;50.078;14.854;2023-07-13T04:22:28;98861.56;;;22.00
76476;BMP280;65308;50.078;14.854;2023-07-13T04:24:55;98862.88;;;22.07
76476;BMP280;65308;50.078;14.854;2023-07-13T04:27:22;98858.00;;;22.13
76476;BMP280;65308;50.078;14.854;2023-07-13T04:29:50;98859.81;;;22.31
76476;BMP280;65308;50.078;14.854;2023-07-13T04:32:16;98856.34;;;22.51
76476;BMP280;65308;50.078;14.854;2023-07-13T04:34:43;98854.75;;;22.56
76476;BMP280;65308;50.078;14.854;2023-07-13T04:37:10;98860.84;;;22.70
76476;BMP280;65308;50.078;14.854;2023-07-13T04:39:36;98874.50;;;22.70
76476;BMP280;65308;50.078;14.854;2023-07-13T04:42:03;98863.50;;;22.83
76476;BMP280;65308;50.078;14.854;2023-07-13T04:44:30;98876.47;;;22.90
76476;BMP280;65308;50.078;14.854;2023-07-13T04:46:58;98871.91;;;22.85
76476;BMP280;65308;50.078;14.854;2023-07-13T04:49:25;98874.72;;;23.00
76476;BMP280;65308;50.078;14.854;2023-07-13T04:51:51;98870.59;;;23.15
76476;BMP280;65308;50.078;14.854;2023-07-13T04:54:19;98858.09;;;23.27
76476;BMP280;65308;50.078;14.854;2023-07-13T04:56:47;98857.88;;;23.68
76476;BMP280;65308;50.078;14.854;2023-07-13T04:59:13;98857.41;;;24.16
76476;BMP280;65308;50.078;14.854;2023-07-13T05:01:40;98862.16;;;24.61
76476;BMP280;65308;50.078;14.854;2023-07-13T05:04:08;98869.00;;;24.93
76476;BMP280;65308;50.078;14.854;2023-07-13T05:06:35;98872.03;;;25.20
76476;BMP280;65308;50.078;14.854;2023-07-13T05:09:01;98880.50;;;25.39
76476;BMP280;65308;50.078;14.854;2023-07-13T05:11:28;98882.75;;;25.73
76476;BMP280;65308;50.078;14.854;2023-07-13T05:13:55;98880.63;;;26.14
76476;BMP280;65308;50.078;14.854;2023-07-13T05:16:21;98888.22;;;26.65
76476;BMP280;65308;50.078;14.854;2023-07-13T05:18:48;98885.56;;;27.37
76476;BMP280;65308;50.078;14.854;2023-07-13T05:21:16;98885.69;;;28.02
76476;BMP280;65308;50.078;14.854;2023-07-13T05:23:43;98885.50;;;28.56
76476;BMP280;65308;50.078;14.854;2023-07-13T05:26:10;98893.06;;;29.45
76476;BMP280;65308;50.078;14.854;2023-07-13T05:28:37;98900.84;;;30.53
76476;BMP280;65308;50.078;14.854;2023-07-13T05:31:04;98905.63;;;31.42
76476;BMP280;65308;50.078;14.854;2023-07-13T05:33:31;98907.41;;;31.84
76476;BMP280;65308;50.078;14.854;2023-07-13T05:35:57;98911.78;;;32.24
76476;BMP280;65308;50.078;14.854;2023-07-13T05:38:27;98918.25;;;32.66
76476;BMP280;65308;50.078;14.854;2023-07-13T05:40:55;98920.38;;;32.93
76476;BMP280;65308;50.078;14.854;2023-07-13T05:43:22;98921.50;;;33.27
76476;BMP280;65308;50.078;14.854;2023-07-13T05:45:52;98925.41;;;33.63
76476;BMP280;65308;50.078;14.854;2023-07-13T05:48:18;98932.91;;;33.88
76476;BMP280;65308;50.078;14.854;2023-07-13T05:50:45;98940.41;;;34.28
76476;BMP280;65308;50.078;14.854;2023-07-13T05:53:12;98942.06;;;34.79
76476;BMP280;65308;50.078;14.854;2023-07-13T05:55:42;98938.66;;;35.12
76476;BMP280;65308;50.078;14.854;2023-07-13T05:58:10;98946.91;;;35.25
76476;BMP280;65308;50.078;14.854;2023-07-13T06:00:37;98940.97;;;35.49
76476;BMP280;65308;50.078;14.854;2023-07-13T06:03:04;98951.47;;;36.02
76476;BMP280;65308;50.078;14.854;2023-07-13T06:05:32;98951.25;;;36.13
76476;BMP280;65308;50.078;14.854;2023-07-13T06:07:59;98956.03;;;36.84
76476;BMP280;65308;50.078;14.854;2023-07-13T06:10:26;98964.28;;;37.81
76476;BMP280;65308;50.078;14.854;2023-07-13T06:12:54;98972.50;;;38.20
76476;BMP280;65308;50.078;14.854;2023-07-13T06:15:21;98969.28;;;39.02
76476;BMP280;65308;50.078;14.854;2023-07-13T06:17:47;98958.38;;;39.14
76476;BMP280;65308;50.078;14.854;2023-07-13T06:20:14;98965.88;;;39.33
76476;BMP280;65308;50.078;14.854;2023-07-13T06:22:40;98966.22;;;39.45
76476;BMP280;65308;50.078;14.854;2023-07-13T06:25:08;98973.34;;;39.80
76476;BMP280;65308;50.078;14.854;2023-07-13T06:27:35;98964.78;;;40.02
76476;BMP280;65308;50.078;14.854;2023-07-13T06:30:04;98975.75;;;40.58
76476;BMP280;65308;50.078;14.854;2023-07-13T06:32:30;98965.41;;;41.05
76476;BMP280;65308;50.078;14.854;2023-07-13T06:34:57;98975.28;;;41.48
76476;BMP280;65308;50.078;14.854;2023-07-13T06:37:23;98981.84;;;42.13
76476;BMP280;65308;50.078;14.854;2023-07-13T06:39:50;98971.44;;;42.86
76476;BMP280;65308;50.078;14.854;2023-07-13T06:42:17;98967.72;;;43.41
76476;BMP280;65308;50.078;14.854;2023-07-13T06:44:43;98974.50;;;44.21
76476;BMP280;65308;50.078;14.854;2023-07-13T06:47:18;98979.59;;;44.97
76476;BMP280;65308;50.078;14.854;2023-07-13T06:49:49;98979.56;;;45.54
76476;BMP280;65308;50.078;14.854;2023-07-13T06:52:16;98978.03;;;45.90
76476;BMP280;65308;50.078;14.854;2023-07-13T06:54:57;98977.25;;;46.05
76476;BMP280;65308;50.078;14.854;2023-07-13T06:57:25;98982.19;;;46.11
76476;BMP280;65308;50.078;14.854;2023-07-13T06:59:51;98992.66;;;46.43
76476;BMP280;65308;50.078;14.854;2023-07-13T07:02:19;98986.88;;;46.57
76476;BMP280;65308;50.078;14.854;2023-07-13T07:04:46;98993.09;;;46.78
76476;BMP280;65308;50.078;14.854;2023-07-13T07:07:15;98989.41;;;46.96
76476;BMP280;65308;50.078;14.854;2023-07-13T07:09:42;98990.59;;;46.27
76476;BMP280;65308;50.078;14.854;2023-07-13T07:12:08;98993.56;;;45.93
76476;BMP280;65308;50.078;14.854;2023-07-13T07:14:35;98991.50;;;45.79
76476;BMP280;65308;50.078;14.854;2023-07-13T07:17:02;98998.66;;;45.05
76476;BMP280;65308;50.078;14.854;2023-07-13T07:19:31;98996.53;;;44.77
76476;BMP280;65308;50.078;14.854;2023-07-13T07:21:59;98998.66;;;45.35
76476;BMP280;65308;50.078;14.854;2023-07-13T07:24:26;99002.81;;;45.81
76476;BMP280;65308;50.078;14.854;2023-07-13T07:26:53;99000.00;;;45.81
76476;BMP280;65308;50.078;14.854;2023-07-13T07:29:19;99007.59;;;46.23
76476;BMP280;65308;50.078;14.854;2023-07-13T07:31:46;99008.56;;;46.89
76476;BMP280;65308;50.078;14.854;2023-07-13T07:34:12;99005.50;;;47.19
76476;BMP280;65308;50.078;14.854;2023-07-13T07:36:40;99002.81;;;47.01
76476;BMP280;65308;50.078;14.854;2023-07-13T07:39:07;99019.34;;;47.52
76476;BMP280;65308;50.078;14.854;2023-07-13T07:41:34;99024.31;;;48.60
76476;BMP280;65308;50.078;14.854;2023-07-13T07:44:00;99015.69;;;49.81
76476;BMP280;65308;50.078;14.854;2023-07-13T07:46:27;99023.03;;;50.64
76476;BMP280;65308;50.078;14.854;2023-07-13T07:48:55;99023.59;;;51.24
76476;BMP280;65308;50.078;14.854;2023-07-13T07:51:22;99021.78;;;51.87
76476;BMP280;65308;50.078;14.854;2023-07-13T07:53:50;99026.75;;;51.87
76476;BMP280;65308;50.078;14.854;2023-07-13T07:56:16;99031.00;;;51.88
76476;BMP280;65308;50.078;14.854;2023-07-13T07:58:43;99027.06;;;52.22
76476;BMP280;65308;50.078;14.854;2023-07-13T08:01:10;99031.72;;;52.96
76476;BMP280;65308;50.078;14.854;2023-07-13T08:03:36;99041.47;;;53.03
76476;BMP280;65308;50.078;14.854;2023-07-13T08:06:03;99038.94;;;53.14
76476;BMP280;65308;50.078;14.854;2023-07-13T08:08:30;99045.41;;;53.52
76476;BMP280;65308;50.078;14.854;2023-07-13T08:11:02;99043.03;;;54.12
76476;BMP280;65308;50.078;14.854;2023-07-13T08:13:29;99038.91;;;54.76
76476;BMP280;65308;50.078;14.854;2023-07-13T08:15:55;99039.53;;;55.24
76476;BMP280;65308;50.078;14.854;2023-07-13T08:18:22;99040.19;;;54.79
76476;BMP280;65308;50.078;14.854;2023-07-13T08:20:49;99025.47;;;53.50
76476;BMP280;65308;50.078;14.854;2023-07-13T08:23:15;99027.03;;;52.01
76476;BMP280;65308;50.078;14.854;2023-07-13T08:25:42;99028.84;;;50.29
76476;BMP280;65308;50.078;14.854;2023-07-13T08:28:10;99027.13;;;48.64
76476;BMP280;65308;50.078;14.854;2023-07-13T08:30:37;99030.13;;;47.37
76476;BMP280;65308;50.078;14.854;2023-07-13T08:33:04;99026.91;;;45.50
76476;BMP280;65308;50.078;14.854;2023-07-13T08:35:30;99039.50;;;44.49
76476;BMP280;65308;50.078;14.854;2023-07-13T08:37:57;99038.44;;;43.82
76476;BMP280;65308;50.078;14.854;2023-07-13T08:40:26;99043.88;;;42.79
76476;BMP280;65308;50.078;14.854;2023-07-13T08:42:55;99031.38;;;41.04
76476;BMP280;65308;50.078;14.854;2023-07-13T08:45:29;99032.53;;;39.94
76476;BMP280;65308;50.078;14.854;2023-07-13T08:48:01;99034.44;;;39.58
76476;BMP280;65308;50.078;14.854;2023-07-13T08:50:33;99049.38;;;39.41
76476;BMP280;65308;50.078;14.854;2023-07-13T08:53:02;99056.19;;;40.17
76476;BMP280;65308;50.078;14.854;2023-07-13T08:55:33;99041.50;;;40.51
76476;BMP280;65308;50.078;14.854;2023-07-13T08:58:06;99040.47;;;41.02
76476;BMP280;65308;50.078;14.854;2023-07-13T09:00:52;99036.88;;;40.63
76476;BMP280;65308;50.078;14.854;2023-07-13T09:03:23;99040.56;;;39.50
76476;BMP280;65308;50.078;14.854;2023-07-13T09:05:55;99050.78;;;38.90
76476;BMP280;65308;50.078;14.854;2023-07-13T09:08:34;99054.63;;;39.26
76476;BMP280;65308;50.078;14.854;2023-07-13T09:11:18;99054.38;;;40.30
76476;BMP280;65308;50.078;14.854;2023-07-13T09:13:53;99070.16;;;41.51
76476;BMP280;65308;50.078;14.854;2023-07-13T09:16:25;99060.47;;;42.57
76476;BMP280;65308;50.078;14.854;2023-07-13T09:18:56;99064.13;;;43.32
76476;BMP280;65308;50.078;14.854;2023-07-13T09:21:38;99053.28;;;43.88
76476;BMP280;65308;50.078;14.854;2023-07-13T09:24:27;99054.78;;;44.02
76476;BMP280;65308;50.078;14.854;2023-07-13T09:26:55;99064.25;;;44.73
76476;BMP280;65308;50.078;14.854;2023-07-13T09:29:28;99062.22;;;45.41
76476;BMP280;65308;50.078;14.854;2023-07-13T09:31:57;99065.06;;;45.61
76476;BMP280;65308;50.078;14.854;2023-07-13T09:34:25;99062.94;;;45.39
76476;BMP280;65308;50.078;14.854;2023-07-13T09:36:52;99055.84;;;45.04
76476;BMP280;65308;50.078;14.854;2023-07-13T09:39:25;99057.25;;;44.82
76476;BMP280;65308;50.078;14.854;2023-07-13T09:41:55;99061.88;;;44.07
76476;BMP280;65308;50.078;14.854;2023-07-13T09:44:28;99068.69;;;43.71
76476;BMP280;65308;50.078;14.854;2023-07-13T09:46:57;99070.13;;;42.39
76476;BMP280;65308;50.078;14.854;2023-07-13T09:49:25;99074.22;;;42.32
76476;BMP280;65308;50.078;14.854;2023-07-13T09:51:59;99081.25;;;42.31
76476;BMP280;65308;50.078;14.854;2023-07-13T09:54:26;99090.16;;;42.14
76476;BMP280;65308;50.078;14.854;2023-07-13T09:56:56;99077.78;;;41.89
76476;BMP280;65308;50.078;14.854;2023-07-13T09:59:24;99080.97;;;42.11
76476;BMP280;65308;50.078;14.854;2023-07-13T10:01:53;99080.78;;;38.87
76476;BMP280;65308;50.078;14.854;2023-07-13T10:04:26;99077.69;;;38.10
76476;BMP280;65308;50.078;14.854;2023-07-13T10:07:05;99072.78;;;38.32
76476;BMP280;65308;50.078;14.854;2023-07-13T10:09:32;99073.84;;;38.43
76476;BMP280;65308;50.078;14.854;2023-07-13T10:11:58;99084.81;;;37.73
76476;BMP280;65308;50.078;14.854;2023-07-13T10:14:26;99078.56;;;37.35
76476;BMP280;65308;50.078;14.854;2023-07-13T10:16:57;99086.09;;;37.50
76476;BMP280;65308;50.078;14.854;2023-07-13T10:19:31;99089.19;;;37.58
76476;BMP280;65308;50.078;14.854;2023-07-13T10:22:00;99087.94;;;37.24
76476;BMP280;65308;50.078;14.854;2023-07-13T10:24:30;99096.19;;;37.20
76476;BMP280;65308;50.078;14.854;2023-07-13T10:27:02;99100.72;;;37.11
76476;BMP280;65308;50.078;14.854;2023-07-13T10:29:35;99098.50;;;37.08
76476;BMP280;65308;50.078;14.854;2023-07-13T10:32:03;99105.13;;;36.99
76476;BMP280;65308;50.078;14.854;2023-07-13T10:34:37;99099.72;;;36.85
76476;BMP280;65308;50.078;14.854;2023-07-13T10:37:05;99091.50;;;36.71
76476;BMP280;65308;50.078;14.854;2023-07-13T10:39:35;99091.56;;;36.38
76476;BMP280;65308;50.078;14.854;2023-07-13T10:42:05;99090.09;;;35.85
76476;BMP280;65308;50.078;14.854;2023-07-13T10:44:33;99076.25;;;35.72
76476;BMP280;65308;50.078;14.854;2023-07-13T10:47:01;99077.16;;;35.45
76476;BMP280;65308;50.078;14.854;2023-07-13T10:49:30;99077.94;;;35.16
76476;BMP280;65308;50.078;14.854;2023-07-13T10:51:59;99077.59;;;34.94
76476;BMP280;65308;50.078;14.854;2023-07-13T10:54:31;99076.06;;;34.61
76476;BMP280;65308;50.078;14.854;2023-07-13T10:57:14;99076.22;;;34.36
76476;BMP280;65308;50.078;14.854;2023-07-13T10:59:43;99090.84;;;34.09
76476;BMP280;65308;50.078;14.854;2023-07-13T11:02:20;99074.97;;;33.71
76476;BMP280;65308;50.078;14.854;2023-07-13T11:04:48;99082.97;;;33.64
76476;BMP280;65308;50.078;14.854;2023-07-13T11:07:21;99076.91;;;33.68
76476;BMP280;65308;50.078;14.854;2023-07-13T11:09:51;99078.16;;;33.65
76476;BMP280;65308;50.078;14.854;2023-07-13T11:12:28;99083.41;;;33.73
76476;BMP280;65308;50.078;14.854;2023-07-13T11:15:10;99083.19;;;33.55
76476;BMP280;65308;50.078;14.854;2023-07-13T11:17:47;99077.47;;;33.39
76476;BMP280;65308;50.078;14.854;2023-07-13T11:20:30;99075.91;;;33.11
76476;BMP280;65308;50.078;14.854;2023-07-13T11:23:19;99070.03;;;33.04
76476;BMP280;65308;50.078;14.854;2023-07-13T11:25:47;99067.69;;;32.15
76476;BMP280;65308;50.078;14.854;2023-07-13T11:28:17;99053.84;;;31.80
76476;BMP280;65308;50.078;14.854;2023-07-13T11:30:48;99053.97;;;31.82
76476;BMP280;65308;50.078;14.854;2023-07-13T11:33:18;99053.94;;;30.71
76476;BMP280;65308;50.078;14.854;2023-07-13T11:35:51;99050.25;;;29.95
76476;BMP280;65308;50.078;14.854;2023-07-13T11:38:21;99054.84;;;29.03
76476;BMP280;65308;50.078;14.854;2023-07-13T11:40:50;99043.84;;;29.32
76476;BMP280;65308;50.078;14.854;2023-07-13T11:43:18;99044.84;;;29.18
76476;BMP280;65308;50.078;14.854;2023-07-13T11:45:44;99039.34;;;29.27
76476;BMP280;65308;50.078;14.854;2023-07-13T11:48:23;99041.78;;;29.23
76476;BMP280;65308;50.078;14.854;2023-07-13T11:50:59;99039.91;;;29.26
76476;BMP280;65308;50.078;14.854;2023-07-13T11:53:29;99033.97;;;29.20
76476;BMP280;65308;50.078;14.854;2023-07-13T11:55:58;99036.44;;;29.16
76476;BMP280;65308;50.078;14.854;2023-07-13T11:58:27;99036.28;;;29.43
76476;BMP280;65308;50.078;14.854;2023-07-13T12:00:58;99044.06;;;29.65
76476;BMP280;65308;50.078;14.854;2023-07-13T12:03:32;99041.88;;;29.83
76476;BMP280;65308;50.078;14.854;2023-07-13T12:06:02;99039.34;;;30.07
76476;BMP280;65308;50.078;14.854;2023-07-13T12:08:37;99039.47;;;29.99
76476;BMP280;65308;50.078;14.854;2023-07-13T12:11:14;99039.28;;;30.16
76476;BMP280;65308;50.078;14.854;2023-07-13T12:13:41;99033.22;;;30.39
76476;BMP280;65308;50.078;14.854;2023-07-13T12:16:15;99029.56;;;30.68
76476;BMP280;65308;50.078;14.854;2023-07-13T12:18:43;99037.41;;;31.04
76476;BMP280;65308;50.078;14.854;2023-07-13T12:21:16;99048.56;;;31.28
76476;BMP280;65308;50.078;14.854;2023-07-13T12:23:47;99045.81;;;30.95
76476;BMP280;65308;50.078;14.854;2023-07-13T12:26:15;99048.06;;;31.19
76476;BMP280;65308;50.078;14.854;2023-07-13T12:28:46;99045.38;;;31.43
76476;BMP280;65308;50.078;14.854;2023-07-13T12:31:25;99046.59;;;31.63
76476;BMP280;65308;50.078;14.854;2023-07-13T12:33:59;99039.78;;;31.76
76476;BMP280;65308;50.078;14.854;2023-07-13T12:36:30;99045.44;;;31.90
76476;BMP280;65308;50.078;14.854;2023-07-13T12:39:04;99036.28;;;31.99
76476;BMP280;65308;50.078;14.854;2023-07-13T12:41:32;99040.63;;;31.90
76476;BMP280;65308;50.078;14.854;2023-07-13T12:43:59;99046.03;;;32.00
76476;BMP280;65308;50.078;14.854;2023-07-13T12:46:26;99049.38;;;31.63
76476;BMP280;65308;50.078;14.854;2023-07-13T12:48:54;99049.53;;;31.89
76476;BMP280;65308;50.078;14.854;2023-07-13T12:51:22;99050.38;;;32.15
76476;BMP280;65308;50.078;14.854;2023-07-13T12:53:57;99043.97;;;32.35
76476;BMP280;65308;50.078;14.854;2023-07-13T12:56:27;99050.78;;;32.58
76476;BMP280;65308;50.078;14.854;2023-07-13T12:58:58;99048.72;;;32.70
76476;BMP280;65308;50.078;14.854;2023-07-13T13:01:26;99053.72;;;32.85
76476;BMP280;65308;50.078;14.854;2023-07-13T13:03:54;99051.03;;;32.99
76476;BMP280;65308;50.078;14.854;2023-07-13T13:06:23;99054.94;;;33.08
76476;BMP280;65308;50.078;14.854;2023-07-13T13:08:52;99051.50;;;33.21
76476;BMP280;65308;50.078;14.854;2023-07-13T13:11:20;99043.84;;;33.33
76476;BMP280;65308;50.078;14.854;2023-07-13T13:13:50;99042.38;;;33.57
76476;BMP280;65308;50.078;14.854;2023-07-13T13:16:20;99040.94;;;33.70
76476;BMP280;65308;50.078;14.854;2023-07-13T13:18:47;99026.34;;;33.69
76476;BMP280;65308;50.078;14.854;2023-07-13T13:21:15;99016.66;;;33.43
76476;BMP280;65308;50.078;14.854;2023-07-13T13:23:41;99015.91;;;33.29
76476;BMP280;65308;50.078;14.854;2023-07-13T13:26:10;99016.16;;;33.21
76476;BMP280;65308;50.078;14.854;2023-07-13T13:28:38;99012.00;;;32.95
76476;BMP280;65308;50.078;14.854;2023-07-13T13:31:07;99012.28;;;32.87
76476;BMP280;65308;50.078;14.854;2023-07-13T13:33:38;99020.59;;;32.87
76476;BMP280;65308;50.078;14.854;2023-07-13T13:36:13;99005.44;;;32.77
76476;BMP280;65308;50.078;14.854;2023-07-13T13:38:41;99009.53;;;32.75
76476;BMP280;65308;50.078;14.854;2023-07-13T13:41:09;99009.38;;;32.85
76476;BMP280;65308;50.078;14.854;2023-07-13T13:43:36;99001.94;;;33.01
76476;BMP280;65308;50.078;14.854;2023-07-13T13:46:13;99001.59;;;32.95
76476;BMP280;65308;50.078;14.854;2023-07-13T13:48:40;99007.31;;;33.11
76476;BMP280;65308;50.078;14.854;2023-07-13T13:51:11;98997.59;;;33.24
76476;BMP280;65308;50.078;14.854;2023-07-13T13:53:39;99003.38;;;33.28
76476;BMP280;65308;50.078;14.854;2023-07-13T13:56:07;98995.78;;;33.42
76476;BMP280;65308;50.078;14.854;2023-07-13T13:58:33;99003.53;;;33.18
76476;BMP280;65308;50.078;14.854;2023-07-13T14:01:00;98995.88;;;31.94
76476;BMP280;65308;50.078;14.854;2023-07-13T14:03:28;98998.28;;;31.76
76476;BMP280;65308;50.078;14.854;2023-07-13T14:05:54;98996.00;;;31.72